Time;durP1;ratioP1;P1;durP2;ratioP2;P2;SDS_P1;SDS_P2;PMS_P1;PMS_P2;Temp;Humidity;BMP_temperature;BMP_pressure;BME280_temperature;BME280_humidity;BME280_pressure;Samples;Min_cycle;Max_cycle;Signal;HPM_P1;HPM_P2
2023/02/13 00:01:15;;;;;;;28.05;12.73;;;8.30;99.90;;;;;;5088336;28;20024;-51
2023/02/13 00:03:41;;;;;;;25.30;11.35;;;8.40;99.90;;;;;;5069818;28;20039;-49
2023/02/13 00:06:07;;;;;;;24.33;10.88;;;8.40;99.90;;;;;;5058036;28;20095;-49
2023/02/13 00:08:32;;;;;;;29.35;13.15;;;8.30;99.90;;;;;;5065249;28;20060;-50
2023/02/13 00:10:58;;;;;;;22.23;11.32;;;8.30;99.90;;;;;;5067525;28;20107;-47
2023/02/13 00:13:23;;;;;;;21.27;9.60;;;8.30;99.90;;;;;;5081811;28;20526;-49
2023/02/13 00:15:57;;;;;;;21.77;10.10;;;8.30;99.90;;;;;;5086329;28;20039;-56
2023/02/13 00:18:22;;;;;;;26.70;10.65;;;8.30;99.90;;;;;;5065032;28;20249;-56
2023/02/13 00:21:00;;;;;;;23.25;11.13;;;8.30;99.90;;;;;;5068094;28;20065;-55
2023/02/13 00:23:27;;;;;;;25.45;10.73;;;8.30;99.90;;;;;;5049493;28;20037;-55
2023/02/13 00:25:53;;;;;;;26.38;11.43;;;8.30;99.90;;;;;;5088920;28;20028;-52
2023/02/13 00:28:18;;;;;;;20.67;9.60;;;8.30;99.90;;;;;;5068072;28;20511;-56
2023/02/13 00:30:44;;;;;;;22.67;9.65;;;8.30;99.90;;;;;;5069644;28;20107;-56
2023/02/13 00:33:09;;;;;;;20.27;9.52;;;8.30;99.90;;;;;;5089149;28;20031;-55
2023/02/13 00:35:35;;;;;;;18.90;8.20;;;8.30;99.90;;;;;;5049233;28;20048;-56
2023/02/13 00:38:00;;;;;;;18.38;8.75;;;8.30;99.90;;;;;;5068892;28;20021;-56
2023/02/13 00:40:25;;;;;;;19.48;9.60;;;8.30;99.90;;;;;;5069241;28;20032;-51
2023/02/13 00:42:51;;;;;;;17.38;8.35;;;8.30;99.90;;;;;;5088669;28;20036;-55
2023/02/13 00:45:16;;;;;;;15.43;6.82;;;8.20;99.90;;;;;;5051366;28;20036;-56
2023/02/13 00:47:42;;;;;;;15.57;7.63;;;8.20;99.90;;;;;;5068626;28;20626;-53
2023/02/13 00:50:08;;;;;;;14.77;6.82;;;8.20;99.90;;;;;;5071475;28;20060;-56
2023/02/13 00:52:33;;;;;;;18.15;7.07;;;8.20;99.90;;;;;;5059249;28;20033;-57
2023/02/13 00:54:59;;;;;;;13.45;6.50;;;8.20;99.90;;;;;;5063275;28;20050;-57
2023/02/13 00:57:24;;;;;;;14.32;7.07;;;8.20;99.90;;;;;;5057884;28;20086;-56
2023/02/13 00:59:50;;;;;;;13.75;6.70;;;8.10;99.90;;;;;;5070798;28;20036;-54
2023/02/13 01:02:16;;;;;;;13.15;6.30;;;8.20;99.90;;;;;;5057233;28;20037;-54
2023/02/13 01:04:41;;;;;;;13.60;6.55;;;8.10;99.90;;;;;;5076663;28;20447;-56
2023/02/13 01:07:06;;;;;;;14.55;7.10;;;8.10;99.90;;;;;;5067534;28;20415;-55
2023/02/13 01:09:32;;;;;;;12.60;6.00;;;8.10;99.90;;;;;;5086551;28;20022;-56
2023/02/13 01:11:57;;;;;;;11.43;5.05;;;8.10;99.90;;;;;;5045574;28;20033;-56
2023/02/13 01:14:23;;;;;;;11.55;5.65;;;8.10;99.90;;;;;;5066661;28;20040;-55
2023/02/13 01:16:48;;;;;;;11.63;5.28;;;8.10;99.90;;;;;;5051080;28;20028;-56
2023/02/13 01:19:14;;;;;;;11.18;4.63;;;8.10;99.90;;;;;;5066458;28;20043;-55
2023/02/13 01:21:41;;;;;;;10.15;4.75;;;8.10;99.90;;;;;;5076858;28;20039;-56
2023/02/13 01:24:06;;;;;;;11.35;5.13;;;8.10;99.90;;;;;;5073176;28;20079;-57
2023/02/13 01:26:32;;;;;;;11.23;5.05;;;8.00;99.90;;;;;;5076964;28;20456;-55
2023/02/13 01:28:57;;;;;;;9.68;5.03;;;8.00;99.90;;;;;;5083500;28;20085;-56
2023/02/13 01:31:23;;;;;;;11.07;5.38;;;8.00;99.90;;;;;;5066846;28;20028;-55
2023/02/13 01:33:49;;;;;;;9.02;4.47;;;8.00;99.90;;;;;;5065020;28;20048;-53
2023/02/13 01:36:14;;;;;;;8.82;4.90;;;8.00;99.90;;;;;;5085402;28;20233;-55
2023/02/13 01:38:41;;;;;;;12.45;4.95;;;7.90;99.90;;;;;;5064679;28;20045;-55
2023/02/13 01:41:07;;;;;;;9.07;4.70;;;8.00;99.90;;;;;;5071780;28;20025;-55
2023/02/13 01:43:46;;;;;;;12.65;4.93;;;7.90;99.90;;;;;;5068501;28;20173;-53
2023/02/13 01:46:19;;;;;;;7.90;4.22;;;7.90;99.90;;;;;;5086096;28;20479;-56
2023/02/13 01:48:47;;;;;;;10.02;4.85;;;7.90;99.90;;;;;;5064154;28;20028;-52
2023/02/13 01:51:18;;;;;;;7.40;4.32;;;7.90;99.90;;;;;;5086839;28;20043;-54
2023/02/13 01:53:57;;;;;;;8.90;3.97;;;7.90;99.90;;;;;;5063816;28;20059;-54
2023/02/13 01:56:36;;;;;;;8.68;4.38;;;7.80;99.90;;;;;;5048305;28;20025;-57
2023/02/13 01:59:07;;;;;;;6.88;3.95;;;7.90;99.90;;;;;;5066229;28;20063;-56
2023/02/13 02:01:33;;;;;;;8.48;4.57;;;7.80;99.90;;;;;;5048177;28;20033;-56
2023/02/13 02:04:09;;;;;;;7.72;3.92;;;7.80;99.90;;;;;;5085325;28;20538;-54
2023/02/13 02:06:45;;;;;;;8.18;4.43;;;7.80;99.90;;;;;;5044287;28;20090;-50
2023/02/13 02:09:17;;;;;;;9.98;4.10;;;7.80;99.90;;;;;;5048112;28;20223;-56
2023/02/13 02:12:21;;;;;;;10.55;4.10;;;7.80;99.90;;;;;;5047727;28;20041;-56
2023/02/13 02:14:48;;;;;;;7.53;3.78;;;7.80;99.90;;;;;;5084970;28;20036;-53
2023/02/13 02:17:14;;;;;;;9.95;4.13;;;7.80;99.90;;;;;;5066234;28;20103;-53
2023/02/13 02:19:54;;;;;;;8.82;3.78;;;7.80;99.90;;;;;;5068005;28;20021;-55
2023/02/13 02:22:22;;;;;;;6.80;3.50;;;7.80;99.90;;;;;;5057705;28;20036;-56
2023/02/13 02:25:03;;;;;;;7.18;3.45;;;7.70;99.90;;;;;;5087862;28;20123;-56
2023/02/13 02:27:31;;;;;;;9.75;3.80;;;7.70;99.90;;;;;;5060064;28;20399;-56
2023/02/13 02:30:18;;;;;;;6.35;3.40;;;7.70;99.90;;;;;;5087972;28;20102;-56
2023/02/13 02:32:50;;;;;;;6.95;3.88;;;7.70;99.90;;;;;;5065881;28;20304;-55
2023/02/13 02:35:35;;;;;;;7.20;3.20;;;7.70;99.90;;;;;;5047655;28;20031;-57
2023/02/13 02:38:07;;;;;;;5.28;3.15;;;7.70;99.90;;;;;;5068740;28;20032;-53
2023/02/13 02:40:44;;;;;;;7.85;3.28;;;7.70;99.90;;;;;;5047717;28;20116;-55
2023/02/13 02:43:36;;;;;;;8.27;3.45;;;7.60;99.90;;;;;;5058870;28;20024;-55
2023/02/13 02:46:15;;;;;;;5.25;3.03;;;7.60;99.90;;;;;;5047418;28;20048;-53
2023/02/13 02:51:47;;;;;;;4.88;2.90;;;7.60;99.90;;;;;;5046268;28;20040;-51
2023/02/13 02:57:15;;;;;;;5.38;3.58;;;7.60;99.90;;;;;;5055207;28;20533;-62
2023/02/13 03:13:17;;;;;;;5.03;2.80;;;7.50;99.90;;;;;;5069277;28;20044;-63
2023/02/13 03:13:53;;;;;;;5.78;3.00;;;7.50;99.90;;;;;;5068209;28;20067;-63
2023/02/13 03:22:17;;;;;;;5.47;2.90;;;7.40;99.90;;;;;;5055556;28;20141;-63
2023/02/13 03:25:03;;;;;;;5.55;2.45;;;7.40;99.90;;;;;;5091195;28;20027;-63
2023/02/13 03:30:40;;;;;;;4.60;2.90;;;7.30;99.90;;;;;;5091131;28;20043;-63
2023/02/13 03:33:17;;;;;;;5.90;2.95;;;7.30;99.90;;;;;;5073564;28;20060;-63
2023/02/13 03:39:08;;;;;;;4.57;2.65;;;7.30;99.90;;;;;;5067470;28;20649;-62
2023/02/13 03:42:01;;;;;;;6.97;2.80;;;7.30;99.90;;;;;;5050897;28;20217;-63
2023/02/13 03:47:46;;;;;;;3.83;2.30;;;7.30;99.90;;;;;;5073742;28;20149;-63
2023/02/13 03:50:13;;;;;;;4.72;2.70;;;7.20;99.90;;;;;;5070649;28;20420;-63
2023/02/13 03:53:07;;;;;;;4.70;2.65;;;7.20;99.90;;;;;;5088118;28;20085;-63
2023/02/13 04:01:31;;;;;;;3.65;2.42;;;7.20;99.90;;;;;;5050364;28;20035;-63
2023/02/13 04:04:11;;;;;;;3.88;2.63;;;7.20;99.90;;;;;;5068781;28;20296;-63
2023/02/13 04:06:56;;;;;;;6.55;3.50;;;7.20;99.90;;;;;;5044204;28;20025;-62
2023/02/13 04:09:24;;;;;;;4.45;2.60;;;7.20;99.90;;;;;;5049455;28;20117;-63
2023/02/13 04:12:01;;;;;;;6.20;3.38;;;7.20;99.90;;;;;;5087484;28;20035;-63
2023/02/13 04:14:36;;;;;;;3.83;2.65;;;7.20;99.90;;;;;;5090179;28;20032;-63
2023/02/13 04:17:06;;;;;;;3.85;2.17;;;7.20;99.90;;;;;;5054742;28;20027;-63
2023/02/13 04:19:32;;;;;;;5.40;2.88;;;7.10;99.90;;;;;;5090547;28;20051;-63
2023/02/13 04:22:00;;;;;;;4.75;2.67;;;7.20;99.90;;;;;;5068227;28;20043;-63
2023/02/13 04:24:26;;;;;;;4.80;2.55;;;7.20;99.90;;;;;;5069618;28;20116;-62
2023/02/13 04:26:53;;;;;;;3.92;2.40;;;7.10;99.90;;;;;;5087285;28;20119;-62
2023/02/13 04:29:21;;;;;;;5.43;2.70;;;7.10;99.90;;;;;;5090042;28;20052;-63
2023/02/13 04:31:46;;;;;;;5.15;2.63;;;7.10;99.90;;;;;;5068191;28;20115;-64
2023/02/13 04:34:11;;;;;;;2.90;2.10;;;7.10;99.90;;;;;;5069796;28;20108;-63
2023/02/13 04:36:37;;;;;;;3.78;2.45;;;7.10;99.90;;;;;;5087376;28;20041;-63
2023/02/13 04:39:03;;;;;;;4.97;2.42;;;7.10;99.90;;;;;;5089962;28;20028;-64
2023/02/13 04:41:28;;;;;;;4.93;2.80;;;7.00;99.90;;;;;;5068143;28;20079;-63
2023/02/13 04:43:54;;;;;;;4.82;2.90;;;7.10;99.90;;;;;;5069510;28;20036;-63
2023/02/13 04:46:19;;;;;;;4.70;2.63;;;7.00;99.90;;;;;;5086887;28;20028;-64
2023/02/13 04:48:44;;;;;;;6.65;2.67;;;7.00;99.90;;;;;;5089900;28;20418;-63
2023/02/13 04:51:10;;;;;;;4.57;2.70;;;7.00;99.90;;;;;;5068009;28;20059;-62
2023/02/13 04:53:35;;;;;;;5.10;2.63;;;7.00;99.90;;;;;;5065687;28;20191;-63
2023/02/13 04:56:01;;;;;;;6.25;3.00;;;7.00;99.90;;;;;;5069026;28;20044;-63
2023/02/13 04:58:26;;;;;;;4.47;2.72;;;7.00;99.90;;;;;;5067217;28;20078;-63
2023/02/13 05:00:52;;;;;;;3.92;2.65;;;7.00;99.90;;;;;;5069558;28;20444;-63
2023/02/13 05:03:17;;;;;;;4.70;2.30;;;7.00;99.90;;;;;;5086731;28;20093;-62
2023/02/13 05:05:43;;;;;;;3.70;2.42;;;7.00;99.90;;;;;;5071733;28;20051;-62
2023/02/13 05:08:09;;;;;;;6.05;2.78;;;7.00;99.90;;;;;;5088286;28;20046;-62
2023/02/13 05:10:34;;;;;;;3.50;2.28;;;7.00;99.90;;;;;;5048771;28;20622;-63
2023/02/13 05:13:00;;;;;;;5.72;2.67;;;7.00;99.90;;;;;;5068358;28;20431;-62
2023/02/13 05:15:26;;;;;;;5.13;2.30;;;7.00;99.90;;;;;;5069136;28;20028;-52
2023/02/13 05:17:52;;;;;;;6.50;2.75;;;7.00;99.90;;;;;;5088460;28;20036;-53
2023/02/13 05:20:18;;;;;;;4.05;2.25;;;7.00;99.90;;;;;;5049727;28;20500;-50
2023/02/13 05:25:34;;;;;;;4.63;2.42;;;6.90;99.90;;;;;;5066098;28;20653;-53
2023/02/13 05:27:59;;;;;;;4.85;2.95;;;6.90;99.90;;;;;;5075724;28;20032;-51
2023/02/13 05:30:25;;;;;;;5.32;3.17;;;6.90;99.90;;;;;;5088317;28;20081;-50
2023/02/13 05:32:51;;;;;;;4.13;2.72;;;7.00;99.90;;;;;;5067314;28;20463;-52
2023/02/13 05:35:17;;;;;;;2.95;2.30;;;6.90;99.90;;;;;;5068689;28;20025;-52
2023/02/13 05:37:43;;;;;;;4.97;3.20;;;6.90;99.90;;;;;;5081523;28;20066;-49
2023/02/13 05:40:10;;;;;;;4.55;2.83;;;6.90;99.90;;;;;;5088838;28;20055;-51
2023/02/13 05:42:36;;;;;;;5.65;3.13;;;7.00;99.90;;;;;;5066979;28;20043;-51
2023/02/13 05:45:02;;;;;;;5.82;3.55;;;6.90;99.90;;;;;;5068105;28;20032;-50
2023/02/13 05:47:27;;;;;;;7.43;3.50;;;6.90;99.90;;;;;;5086013;28;20196;-53
2023/02/13 05:49:53;;;;;;;5.40;3.05;;;6.90;99.90;;;;;;5088853;28;20123;-54
2023/02/13 05:52:18;;;;;;;7.68;3.70;;;6.90;99.90;;;;;;5067127;28;20021;-50
2023/02/13 05:54:44;;;;;;;5.82;3.15;;;6.90;99.90;;;;;;5068304;28;20021;-53
2023/02/13 05:57:09;;;;;;;6.35;3.80;;;6.90;99.90;;;;;;5085499;28;20043;-51
2023/02/13 05:59:35;;;;;;;7.15;4.00;;;6.90;99.90;;;;;;5088623;28;20028;-51
2023/02/13 06:02:00;;;;;;;6.03;3.28;;;6.90;99.90;;;;;;5064045;28;20056;-48
2023/02/13 06:04:26;;;;;;;5.40;3.90;;;6.90;99.90;;;;;;5070074;28;20028;-48
2023/02/13 06:06:51;;;;;;;9.82;4.50;;;6.90;99.90;;;;;;5081020;28;20036;-51
2023/02/13 06:09:17;;;;;;;6.03;3.75;;;6.90;99.90;;;;;;5086468;28;20055;-46
2023/02/13 06:11:42;;;;;;;6.38;3.53;;;6.90;99.90;;;;;;5064388;28;20523;-49
2023/02/13 06:14:08;;;;;;;6.68;3.60;;;6.90;99.90;;;;;;5086023;28;20086;-53
2023/02/13 06:16:33;;;;;;;6.40;3.85;;;6.90;99.90;;;;;;5065573;28;20056;-52
2023/02/13 06:18:59;;;;;;;10.38;3.78;;;7.00;99.90;;;;;;5064698;28;20043;-50
2023/02/13 06:21:24;;;;;;;8.55;4.13;;;6.90;99.90;;;;;;5055804;28;20020;-48
2023/02/13 06:23:50;;;;;;;7.53;4.53;;;7.00;99.90;;;;;;5064500;28;20039;-47
2023/02/13 06:26:15;;;;;;;5.32;3.35;;;7.00;99.90;;;;;;5061771;28;20025;-50
2023/02/13 06:28:41;;;;;;;4.95;3.17;;;6.90;99.90;;;;;;5073517;28;20543;-47
2023/02/13 06:31:06;;;;;;;5.13;3.42;;;7.00;99.90;;;;;;5070007;28;20036;-48
2023/02/13 06:33:32;;;;;;;5.97;3.65;;;7.00;99.90;;;;;;5066714;28;20063;-47
2023/02/13 06:35:57;;;;;;;7.40;4.00;;;7.00;99.90;;;;;;5063031;28;20047;-51
2023/02/13 06:38:23;;;;;;;6.28;3.58;;;7.00;99.90;;;;;;5083567;28;20161;-51
2023/02/13 06:40:49;;;;;;;6.28;3.33;;;7.00;99.90;;;;;;5058557;28;20568;-52
2023/02/13 06:43:16;;;;;;;9.05;4.22;;;7.00;99.90;;;;;;5066319;28;20037;-49
2023/02/13 06:45:42;;;;;;;6.78;3.88;;;7.00;99.90;;;;;;5063638;28;20150;-52
2023/02/13 06:48:08;;;;;;;6.55;3.63;;;7.00;99.90;;;;;;5081610;28;20376;-47
2023/02/13 06:50:34;;;;;;;6.88;3.28;;;7.00;99.90;;;;;;5047506;28;20035;-51
2023/02/13 06:53:00;;;;;;;4.93;3.40;;;7.00;99.90;;;;;;5085233;28;20230;-53
2023/02/13 06:55:26;;;;;;;6.25;3.90;;;7.00;99.90;;;;;;5051071;28;20029;-51
2023/02/13 06:57:52;;;;;;;7.78;4.13;;;7.00;99.90;;;;;;5065412;28;20033;-50
2023/02/13 07:00:18;;;;;;;5.90;3.60;;;7.00;99.90;;;;;;5070820;28;20043;-49
2023/02/13 07:02:45;;;;;;;6.70;4.20;;;7.00;99.90;;;;;;5084024;28;20059;-48
2023/02/13 07:05:11;;;;;;;7.85;4.05;;;7.00;99.90;;;;;;5068809;28;20043;-49
2023/02/13 07:07:39;;;;;;;9.70;4.15;;;7.00;99.90;;;;;;5069491;28;20045;-48
2023/02/13 07:10:06;;;;;;;8.57;3.85;;;7.10;99.90;;;;;;5066474;28;20241;-46
2023/02/13 07:12:32;;;;;;;10.07;4.53;;;7.00;99.90;;;;;;5084294;28;20563;-50
2023/02/13 07:14:58;;;;;;;9.02;4.22;;;7.10;99.90;;;;;;5086927;28;20050;-49
2023/02/13 07:17:25;;;;;;;7.20;3.95;;;7.10;99.90;;;;;;5065202;28;20475;-50
2023/02/13 07:19:51;;;;;;;5.82;3.67;;;7.10;99.90;;;;;;5066500;28;20099;-47
2023/02/13 07:22:17;;;;;;;9.32;4.43;;;7.10;99.90;;;;;;5075377;28;20041;-48
2023/02/13 07:24:42;;;;;;;9.75;3.90;;;7.10;99.90;;;;;;5046229;28;20450;-45
2023/02/13 07:27:08;;;;;;;10.35;3.67;;;7.20;99.90;;;;;;5064019;28;20025;-48
2023/02/13 07:29:33;;;;;;;8.52;4.30;;;7.20;99.90;;;;;;5066732;28;20055;-49
2023/02/13 07:31:59;;;;;;;8.63;4.32;;;7.20;99.90;;;;;;5080329;28;20024;-50
2023/02/13 07:34:24;;;;;;;7.95;3.95;;;7.20;99.90;;;;;;5046801;28;20053;-51
2023/02/13 07:36:50;;;;;;;6.78;3.90;;;7.20;99.90;;;;;;5081611;28;20775;-51
2023/02/13 07:39:15;;;;;;;6.55;4.15;;;7.20;99.90;;;;;;5086926;28;20031;-51
2023/02/13 07:41:41;;;;;;;6.65;4.00;;;7.30;99.90;;;;;;5066988;28;20029;-48
2023/02/13 07:44:07;;;;;;;6.03;3.78;;;7.30;99.90;;;;;;5065892;28;20044;-52
2023/02/13 07:46:32;;;;;;;9.18;4.57;;;7.30;99.90;;;;;;5088903;28;20070;-50
2023/02/13 07:48:58;;;;;;;7.25;4.40;;;7.30;99.90;;;;;;5049968;28;20512;-47
2023/02/13 07:51:24;;;;;;;7.28;3.78;;;7.30;99.90;;;;;;5069243;28;20036;-50
2023/02/13 07:53:51;;;;;;;7.18;4.13;;;7.30;99.90;;;;;;5070447;28;20033;-47
2023/02/13 07:56:16;;;;;;;5.63;3.40;;;7.40;99.90;;;;;;5089641;28;20035;-53
2023/02/13 07:58:43;;;;;;;7.45;4.32;;;7.40;99.90;;;;;;5052234;28;20029;-50
2023/02/13 08:01:10;;;;;;;6.53;4.18;;;7.40;99.90;;;;;;5069016;28;20054;-50
2023/02/13 08:03:36;;;;;;;5.60;3.85;;;7.40;99.90;;;;;;5072251;28;20043;-50
2023/02/13 08:06:02;;;;;;;7.80;4.20;;;7.50;99.90;;;;;;5086084;28;20419;-49
2023/02/13 08:08:27;;;;;;;8.52;4.47;;;7.50;99.90;;;;;;5052592;28;20056;-53
2023/02/13 08:13:38;;;;;;;7.72;5.00;;;7.50;99.90;;;;;;5064044;28;20667;-48
2023/02/13 08:16:04;;;;;;;6.07;3.80;;;7.60;99.90;;;;;;5090080;28;20035;-48
2023/02/13 08:18:29;;;;;;;9.77;5.43;;;7.60;99.90;;;;;;5053478;28;20025;-50
2023/02/13 08:20:54;;;;;;;10.10;5.97;;;7.60;99.90;;;;;;5069631;28;20059;-53
2023/02/13 08:23:20;;;;;;;8.23;4.60;;;7.60;99.90;;;;;;5074942;28;20106;-51
2023/02/13 08:25:48;;;;;;;8.82;5.25;;;7.70;99.90;;;;;;5089621;28;20039;-49
2023/02/13 08:28:15;;;;;;;8.63;4.57;;;7.70;99.90;;;;;;5056587;28;20037;-50
2023/02/13 08:30:41;;;;;;;8.38;4.43;;;7.70;99.90;;;;;;5089514;28;20039;-49
2023/02/13 08:33:06;;;;;;;6.68;4.78;;;7.70;99.90;;;;;;5057606;28;20669;-49
2023/02/13 08:35:32;;;;;;;11.32;5.70;;;7.80;99.90;;;;;;5069451;28;20082;-49
2023/02/13 08:38:03;;;;;;;10.88;5.00;;;7.80;99.90;;;;;;5067532;28;20061;-53
2023/02/13 08:40:30;;;;;;;7.78;5.00;;;7.80;99.90;;;;;;5050255;28;20021;-51
2023/02/13 08:43:04;;;;;;;6.63;4.38;;;7.80;99.90;;;;;;5087133;28;20043;-49
2023/02/13 08:45:31;;;;;;;8.73;4.80;;;7.90;99.90;;;;;;5070131;28;20041;-52
2023/02/13 08:47:57;;;;;;;8.73;4.88;;;7.90;99.90;;;;;;5087706;28;20063;-47
2023/02/13 08:50:23;;;;;;;7.90;4.63;;;7.90;99.90;;;;;;5068982;28;20021;-47
2023/02/13 08:52:48;;;;;;;8.35;5.10;;;8.00;99.90;;;;;;5087246;28;20074;-52
2023/02/13 08:55:14;;;;;;;9.07;5.45;;;8.00;99.90;;;;;;5070051;28;20035;-49
2023/02/13 08:57:39;;;;;;;10.32;5.78;;;8.00;99.90;;;;;;5087330;28;20035;-67
2023/02/13 09:00:07;;;;;;;7.57;5.18;;;8.10;99.90;;;;;;5090050;28;20494;-57
2023/02/13 09:02:33;;;;;;;9.45;4.70;;;8.10;99.90;;;;;;5067878;28;20016;-57
2023/02/13 09:04:58;;;;;;;10.23;5.85;;;8.20;99.90;;;;;;5069380;28;20788;-58
2023/02/13 09:07:24;;;;;;;10.38;5.20;;;8.20;99.90;;;;;;5075890;28;20072;-59
2023/02/13 09:09:49;;;;;;;12.07;6.25;;;8.20;99.90;;;;;;5049452;28;20013;-58
2023/02/13 09:12:15;;;;;;;14.23;7.72;;;8.30;99.90;;;;;;5065594;28;20024;-59
2023/02/13 09:14:41;;;;;;;17.00;7.40;;;8.30;99.90;;;;;;5069497;28;20028;-53
2023/02/13 09:17:06;;;;;;;18.05;8.85;;;8.40;99.90;;;;;;5086837;28;20024;-53
2023/02/13 09:19:32;;;;;;;11.38;6.85;;;8.40;99.90;;;;;;5089718;28;20020;-54
2023/02/13 09:21:57;;;;;;;14.75;7.85;;;8.40;99.90;;;;;;5067708;28;20103;-55
2023/02/13 09:24:22;;;;;;;13.93;6.97;;;8.50;99.90;;;;;;5069155;28;20036;-53
2023/02/13 09:26:48;;;;;;;10.27;6.05;;;8.50;99.90;;;;;;5085596;28;20032;-53
2023/02/13 09:29:13;;;;;;;10.50;6.28;;;8.50;99.90;;;;;;5049174;28;20021;-53
2023/02/13 09:31:39;;;;;;;11.25;6.03;;;8.50;99.90;;;;;;5068503;28;20036;-54
2023/02/13 09:34:04;;;;;;;9.13;5.85;;;8.60;99.90;;;;;;5061001;28;20115;-53
2023/02/13 09:36:30;;;;;;;10.90;5.90;;;8.70;99.90;;;;;;5089425;28;20604;-53
2023/02/13 09:38:56;;;;;;;11.38;6.05;;;8.70;99.90;;;;;;5067401;28;20411;-54
2023/02/13 09:41:33;;;;;;;7.18;5.10;;;8.70;99.90;;;;;;5068867;28;20028;-55
2023/02/13 09:44:32;;;;;;;6.93;5.07;;;8.70;99.90;;;;;;5055633;28;20035;-55
2023/02/13 09:47:10;;;;;;;8.25;5.28;;;8.80;99.90;;;;;;5089104;28;20046;-54
2023/02/13 09:49:39;;;;;;;7.82;5.43;;;8.80;99.90;;;;;;5066197;28;20032;-55
2023/02/13 09:52:04;;;;;;;9.93;5.95;;;8.90;99.90;;;;;;5068890;28;20117;-53
2023/02/13 09:54:31;;;;;;;10.27;5.63;;;8.90;99.90;;;;;;5086273;28;20073;-54
2023/02/13 09:57:06;;;;;;;8.95;5.15;;;9.00;99.90;;;;;;5068946;28;20028;-52
2023/02/13 10:00:12;;;;;;;8.73;4.95;;;9.00;99.90;;;;;;5055742;28;20045;-53
2023/02/13 10:02:55;;;;;;;8.68;5.55;;;9.10;99.90;;;;;;5048653;28;20033;-55
2023/02/13 10:05:38;;;;;;;9.43;5.05;;;9.10;99.90;;;;;;5065004;28;20125;-52
2023/02/13 10:08:20;;;;;;;9.50;5.32;;;9.20;99.90;;;;;;5071437;28;20077;-51
2023/02/13 10:11:24;;;;;;;8.32;5.63;;;9.20;99.90;;;;;;5065862;28;20028;-55
2023/02/13 10:14:07;;;;;;;8.60;5.05;;;9.30;99.90;;;;;;5052721;28;20042;-54
2023/02/13 10:16:42;;;;;;;8.48;5.40;;;9.30;99.90;;;;;;5088634;28;20024;-55
2023/02/13 10:19:27;;;;;;;10.80;6.23;;;9.40;99.90;;;;;;5057519;28;20027;-54
2023/02/13 10:22:14;;;;;;;9.48;5.18;;;9.40;99.90;;;;;;5088513;28;20020;-53
2023/02/13 10:24:40;;;;;;;;;;;9.40;99.90;;;;;;5067009;28;20556;-53
2023/02/13 10:27:17;;;;;;;7.83;5.03;;;9.50;99.90;;;;;;5087480;28;19953;-52
2023/02/13 10:30:20;;;;;;;9.07;4.95;;;9.50;99.90;;;;;;5056734;28;20484;-55
2023/02/13 10:33:19;;;;;;;7.18;4.70;;;9.60;99.90;;;;;;5005967;28;20022;-53
2023/02/13 10:36:01;;;;;;;10.23;6.15;;;9.60;99.90;;;;;;5065353;28;20040;-55
2023/02/13 10:38:30;;;;;;;13.75;5.47;;;9.60;99.90;;;;;;5047897;28;20025;-51
2023/02/13 10:41:24;;;;;;;9.02;5.93;;;9.60;99.90;;;;;;5047942;28;20028;-53
2023/02/13 10:44:19;;;;;;;11.00;6.13;;;9.50;99.90;;;;;;5052448;28;20016;-52
2023/02/13 10:47:12;;;;;;;11.18;6.63;;;9.40;99.90;;;;;;5088379;28;20017;-54
2023/02/13 10:49:58;;;;;;;10.98;6.28;;;9.30;99.90;;;;;;5065773;28;20042;-53
2023/02/13 10:52:42;;;;;;;10.70;6.00;;;9.30;99.90;;;;;;5048216;28;20033;-55
2023/02/13 10:55:46;;;;;;;13.48;6.82;;;9.30;99.90;;;;;;5070887;28;20036;-53
2023/02/13 10:58:17;;;;;;;11.00;6.70;;;9.40;99.90;;;;;;5047975;28;20033;-54
2023/02/13 11:01:01;;;;;;;9.80;5.95;;;9.50;99.90;;;;;;5065953;28;20507;-54
2023/02/13 11:03:29;;;;;;;10.63;6.20;;;9.60;99.90;;;;;;5046337;28;20067;-52
2023/02/13 11:05:55;;;;;;;9.00;5.70;;;9.70;99.90;;;;;;5042844;28;20029;-55
2023/02/13 11:08:24;;;;;;;8.05;5.65;;;9.80;99.90;;;;;;5086699;28;20518;-57
2023/02/13 11:10:50;;;;;;;9.18;5.85;;;9.90;99.90;;;;;;5046360;28;20057;-54
2023/02/13 11:13:21;;;;;;;10.35;5.68;;;9.90;99.90;;;;;;5086486;28;20540;-54
2023/02/13 11:15:57;;;;;;;10.93;6.60;;;10.00;99.90;;;;;;5045433;28;20092;-52
2023/02/13 11:18:25;;;;;;;;;;;9.90;99.90;;;;;;5068095;28;20017;-54
2023/02/13 11:20:58;;;;;;;9.77;5.90;;;9.80;99.90;;;;;;5069605;28;20372;-55
2023/02/13 11:23:29;;;;;;;11.52;6.53;;;9.80;99.90;;;;;;5051581;28;20063;-54
2023/02/13 11:25:59;;;;;;;11.73;7.10;;;9.70;99.90;;;;;;5051410;28;20107;-54
2023/02/13 11:28:30;;;;;;;11.63;6.90;;;9.80;99.90;;;;;;5091466;28;20043;-57
2023/02/13 11:31:13;;;;;;;11.43;6.35;;;9.80;99.90;;;;;;5051532;28;20025;-55
2023/02/13 11:33:38;;;;;;;11.82;7.00;;;9.80;99.90;;;;;;5088839;28;20111;-55
2023/02/13 11:36:14;;;;;;;11.70;7.15;;;9.80;99.90;;;;;;5091643;28;20099;-54
2023/02/13 11:38:39;;;;;;;10.73;6.13;;;9.90;99.90;;;;;;5052881;28;20028;-55
2023/02/13 11:41:11;;;;;;;13.02;7.68;;;9.90;99.90;;;;;;5091504;28;20315;-55
2023/02/13 11:43:45;;;;;;;10.23;7.07;;;10.00;99.90;;;;;;5069395;28;20434;-55
2023/02/13 11:46:17;;;;;;;11.25;6.25;;;10.00;99.90;;;;;;5069994;28;20107;-53
2023/02/13 11:48:54;;;;;;;8.93;6.15;;;10.00;99.90;;;;;;5089055;28;20020;-53
2023/02/13 11:51:33;;;;;;;8.45;5.38;;;10.00;99.90;;;;;;5091379;28;20514;-50
2023/02/13 11:54:00;;;;;;;8.75;5.68;;;9.90;99.90;;;;;;5057845;28;20487;-55
2023/02/13 11:56:25;;;;;;;9.27;5.75;;;9.90;99.90;;;;;;5091170;28;20105;-55
2023/02/13 11:59:01;;;;;;;9.98;6.25;;;9.80;99.90;;;;;;5069341;28;20109;-53
2023/02/13 12:01:28;;;;;;;8.82;6.10;;;9.80;99.90;;;;;;5070997;28;20034;-54
2023/02/13 12:04:01;;;;;;;9.85;6.30;;;9.60;99.90;;;;;;5079714;28;20025;-52
2023/02/13 12:06:26;;;;;;;14.27;6.55;;;9.60;99.90;;;;;;5046047;28;20112;-55
2023/02/13 12:08:52;;;;;;;11.30;7.20;;;9.50;99.90;;;;;;5067871;28;20120;-52
2023/02/13 12:11:42;;;;;;;10.23;6.50;;;9.50;99.90;;;;;;5070698;28;20663;-53
2023/02/13 12:14:20;;;;;;;11.05;6.75;;;9.50;99.90;;;;;;5060207;28;20111;-56
2023/02/13 12:16:49;;;;;;;9.75;6.20;;;9.50;99.90;;;;;;5090858;28;20020;-53
2023/02/13 12:19:21;;;;;;;10.88;6.60;;;9.50;99.90;;;;;;5068706;28;20056;-55
2023/02/13 12:22:20;;;;;;;11.07;6.97;;;9.50;99.90;;;;;;5070376;28;20027;-54
2023/02/13 12:25:11;;;;;;;10.85;6.88;;;9.50;99.90;;;;;;5046518;28;20040;-53
2023/02/13 12:27:56;;;;;;;9.60;6.32;;;9.50;99.90;;;;;;5050315;28;20029;-52
2023/02/13 12:30:41;;;;;;;10.43;6.72;;;9.50;99.90;;;;;;5063804;28;20029;-53
2023/02/13 12:33:21;;;;;;;13.57;8.50;;;9.50;99.90;;;;;;5050380;28;20033;-53
2023/02/13 12:35:55;;;;;;;12.63;7.53;;;9.60;99.90;;;;;;5068446;28;20388;-54
2023/02/13 12:38:45;;;;;;;13.20;7.82;;;9.60;99.90;;;;;;5050184;28;20037;-54
2023/02/13 12:41:23;;;;;;;11.88;7.00;;;9.60;99.90;;;;;;5050226;28;20108;-54
2023/02/13 12:44:04;;;;;;;14.40;7.38;;;9.60;99.90;;;;;;5054127;28;20026;-54
2023/02/13 12:46:59;;;;;;;10.63;7.20;;;9.70;99.90;;;;;;5090352;28;20040;-56
2023/02/13 12:49:51;;;;;;;13.13;8.23;;;9.70;99.90;;;;;;5064135;28;20107;-53
2023/02/13 12:52:37;;;;;;;11.85;6.80;;;9.60;99.90;;;;;;5060521;28;20109;-51
2023/02/13 12:55:24;;;;;;;12.07;7.25;;;9.60;99.00;;;;;;5050019;28;20041;-53
2023/02/13 12:58:19;;;;;;;15.20;8.18;;;9.60;96.00;;;;;;5065052;28;20024;-52
2023/02/13 13:01:13;;;;;;;14.90;8.02;;;9.40;96.00;;;;;;5040794;28;20094;-55
2023/02/13 13:03:50;;;;;;;15.15;8.63;;;9.40;98.00;;;;;;5049786;28;20029;-54
2023/02/13 13:06:37;;;;;;;12.95;8.52;;;9.30;97.90;;;;;;5083803;28;20666;-55
2023/02/13 13:09:18;;;;;;;15.18;8.20;;;9.30;97.90;;;;;;5049731;28;20037;-55
2023/02/13 13:12:12;;;;;;;15.05;7.38;;;9.30;99.00;;;;;;5054504;28;20055;-53
2023/02/13 13:14:54;;;;;;;11.60;7.45;;;9.30;99.20;;;;;;5089950;28;20031;-55
2023/02/13 13:17:39;;;;;;;15.38;8.30;;;9.20;99.20;;;;;;5064470;28;20598;-55
2023/02/13 13:20:13;;;;;;;15.13;8.10;;;9.20;96.70;;;;;;5069969;28;20507;-54
2023/02/13 13:23:07;;;;;;;15.15;8.38;;;9.20;98.50;;;;;;5087302;28;20044;-55
2023/02/13 13:25:38;;;;;;;11.50;7.60;;;9.20;98.70;;;;;;5049327;28;20041;-53
2023/02/13 13:28:21;;;;;;;14.73;8.43;;;9.10;98.40;;;;;;5061937;28;20032;-51
2023/02/13 13:30:47;;;;;;;13.93;8.32;;;9.10;98.50;;;;;;5049261;28;20059;-56
2023/02/13 13:33:23;;;;;;;12.65;7.82;;;9.10;97.80;;;;;;5064852;28;20036;-55
2023/02/13 13:36:05;;;;;;;13.30;7.93;;;9.00;96.00;;;;;;5081030;28;20032;-54
2023/02/13 13:39:00;;;;;;;16.20;9.23;;;9.00;95.40;;;;;;5069409;28;20055;-55
2023/02/13 13:41:46;;;;;;;14.20;8.18;;;8.90;94.90;;;;;;5067297;28;20028;-54
2023/02/13 13:44:25;;;;;;;14.05;8.65;;;8.80;96.10;;;;;;5063368;28;20538;-55
2023/02/13 13:47:15;;;;;;;17.50;9.27;;;8.80;93.90;;;;;;5047805;28;20036;-52
2023/02/13 13:49:58;;;;;;;18.02;9.52;;;8.70;92.40;;;;;;5047869;28;20029;-54
2023/02/13 13:52:28;;;;;;;15.85;9.88;;;8.60;92.40;;;;;;5050724;28;20481;-54
2023/02/13 13:54:56;;;;;;;13.48;8.32;;;8.60;93.50;;;;;;5088090;28;20058;-55
2023/02/13 13:57:45;;;;;;;14.43;8.15;;;8.50;93.50;;;;;;5065814;28;20024;-56
2023/02/13 14:00:10;;;;;;;12.32;7.45;;;8.60;94.70;;;;;;5044595;28;20047;-55